Terminal Aerodrome Forecast
Issued by NWS

Home | Current Version | Previous Version | Text Only | Print | Product List | Glossary On
Versions: 1 2 3 4 5 6 7 8 9 10 11 12
000
FTUS45 KGGW 241800 AAA
TAFSDY
TAF AMD
KSDY 241812Z 2418/2518 14007KT P6SM VCTS SCT100CB
      TEMPO 2418/2419 VRB15G25KT -TSRA SCT060 BKN080CB
     FM241930 15007KT P6SM SCT160
     FM250000 30017G26KT P6SM VCTS SCT190CB
     FM250600 31010KT P6SM SKC
      AMD LTD TO CLD VIS AND WIND=

USA.gov is the U.S. government's official web portal to all federal, state and local government web resources and services.